Time;durP1;ratioP1;P1;durP2;ratioP2;P2;SDS_P1;SDS_P2;PMS_P1;PMS_P2;Temp;Humidity;BMP_temperature;BMP_pressure;BME280_temperature;BME280_humidity;BME280_pressure;Samples;Min_cycle;Max_cycle;Signal;HPM_P1;HPM_P2
2021/01/15 00:02:02;;;;;;;15.90;6.60;;;-2.20;99.90;;;;;;4418669;28;660603;-70
2021/01/15 00:04:49;;;;;;;39.90;14.17;;;-2.40;99.90;;;;;;4390052;28;658634;-70
2021/01/15 00:07:36;;;;;;;37.93;13.33;;;-2.40;99.90;;;;;;4418594;28;661197;-70
2021/01/15 00:10:24;;;;;;;25.67;10.10;;;-2.50;99.90;;;;;;4403032;28;659689;-68
2021/01/15 00:13:11;;;;;;;20.37;6.63;;;-2.60;99.90;;;;;;4406310;28;661415;-70
2021/01/15 00:15:58;;;;;;;18.05;6.75;;;-2.50;99.90;;;;;;4409518;28;658789;-70
2021/01/15 00:18:46;;;;;;;55.20;14.33;;;-2.60;99.90;;;;;;4396386;28;658486;-69
2021/01/15 00:21:33;;;;;;;36.17;13.40;;;-2.60;99.90;;;;;;4407253;28;658915;-70
2021/01/15 00:24:20;;;;;;;38.00;13.60;;;-2.60;99.90;;;;;;4389258;28;661213;-70
2021/01/15 00:27:07;;;;;;;34.17;11.97;;;-2.70;99.90;;;;;;4413264;28;660653;-69
2021/01/15 00:29:54;;;;;;;23.57;8.17;;;-2.80;99.90;;;;;;4391018;28;659722;-70
2021/01/15 00:32:41;;;;;;;34.33;11.83;;;-2.90;99.90;;;;;;4417464;28;659357;-69
2021/01/15 00:35:30;;;;;;;34.67;12.13;;;-2.90;99.90;;;;;;4404204;28;659497;-66
2021/01/15 00:38:17;;;;;;;29.10;12.07;;;-3.00;99.90;;;;;;4409341;28;660907;-69
2021/01/15 00:41:04;;;;;;;30.88;11.13;;;-2.80;99.90;;;;;;4386936;28;659759;-68
2021/01/15 00:43:51;;;;;;;22.33;6.60;;;-2.80;99.90;;;;;;4405419;28;661476;-69
2021/01/15 00:46:45;;;;;;;24.23;9.63;;;-2.70;99.90;;;;;;4396017;28;658484;-68
2021/01/15 00:49:33;;;;;;;12.07;4.33;;;-2.70;99.90;;;;;;4384418;28;659030;-70
2021/01/15 00:52:21;;;;;;;20.80;7.87;;;-2.90;99.90;;;;;;4383261;28;660145;-69
2021/01/15 00:55:10;;;;;;;19.30;7.50;;;-3.10;99.90;;;;;;4401034;28;659101;-67
2021/01/15 00:57:58;;;;;;;12.83;5.10;;;-3.20;99.90;;;;;;4406732;28;660407;-66
2021/01/15 01:00:45;;;;;;;16.07;5.93;;;-2.90;99.90;;;;;;4391206;28;658841;-69
2021/01/15 01:03:32;;;;;;;21.10;7.23;;;-3.00;99.90;;;;;;4414226;28;659008;-69
2021/01/15 01:06:20;;;;;;;20.50;7.40;;;-3.10;99.90;;;;;;4390801;28;658578;-69
2021/01/15 01:09:08;;;;;;;23.37;8.43;;;-3.20;99.90;;;;;;4413954;28;659709;-70
2021/01/15 01:11:57;;;;;;;20.90;8.10;;;-3.50;99.90;;;;;;4392378;28;660170;-69
2021/01/15 01:14:44;;;;;;;19.92;7.68;;;-3.60;99.90;;;;;;4394644;28;658855;-69
2021/01/15 01:17:32;;;;;;;24.47;8.40;;;-3.60;99.90;;;;;;4404458;28;659356;-69
2021/01/15 01:20:19;;;;;;;26.27;8.93;;;-3.50;99.90;;;;;;4396052;28;658708;-67
2021/01/15 01:23:06;;;;;;;25.40;9.17;;;-3.50;99.90;;;;;;4403490;28;659851;-69
2021/01/15 01:25:54;;;;;;;12.73;3.70;;;-3.60;99.90;;;;;;4414305;28;659226;-69
2021/01/15 01:28:42;;;;;;;25.90;9.07;;;-3.50;99.90;;;;;;4381160;28;659173;-69
2021/01/15 01:31:29;;;;;;;26.50;7.53;;;-3.60;99.90;;;;;;4395724;28;658542;-68
2021/01/15 01:34:16;;;;;;;23.77;8.50;;;-3.60;99.90;;;;;;4408354;28;660268;-70
2021/01/15 01:37:03;;;;;;;24.87;9.70;;;-3.50;99.90;;;;;;4413951;28;659682;-70
2021/01/15 01:39:50;;;;;;;22.50;9.83;;;-3.70;99.90;;;;;;4385543;28;659662;-69
2021/01/15 01:42:39;;;;;;;27.10;9.13;;;-3.70;99.90;;;;;;4414010;28;660357;-69
2021/01/15 01:45:26;;;;;;;27.97;9.47;;;-3.80;99.90;;;;;;4382133;28;659035;-69
2021/01/15 01:48:13;;;;;;;29.30;10.07;;;-3.90;99.90;;;;;;4413937;28;659104;-69
2021/01/15 01:51:00;;;;;;;22.63;7.33;;;-3.90;99.90;;;;;;4392012;28;659501;-69
2021/01/15 01:53:47;;;;;;;31.17;9.80;;;-3.90;99.90;;;;;;4408231;28;660091;-69
2021/01/15 01:56:34;;;;;;;26.70;9.37;;;-3.90;99.90;;;;;;4390445;28;658541;-68
2021/01/15 01:59:22;;;;;;;24.35;10.02;;;-3.90;99.90;;;;;;4417846;28;659160;-69
2021/01/15 02:02:09;;;;;;;27.20;9.27;;;-4.00;99.90;;;;;;4387377;28;659563;-68
2021/01/15 02:04:56;;;;;;;27.07;10.13;;;-3.70;99.90;;;;;;4417626;28;659463;-69
2021/01/15 02:07:44;;;;;;;29.67;9.57;;;-3.70;99.90;;;;;;4399258;28;659974;-67
2021/01/15 02:10:33;;;;;;;10.63;3.33;;;-3.50;99.90;;;;;;4409973;28;659687;-69
2021/01/15 02:13:26;;;;;;;29.60;9.77;;;-3.50;99.90;;;;;;4385043;28;659550;-69
2021/01/15 02:16:18;;;;;;;13.50;5.33;;;-3.60;99.90;;;;;;4390850;28;659342;-70
2021/01/15 02:19:18;;;;;;;25.85;10.02;;;-3.60;99.90;;;;;;4358700;28;660004;-69
2021/01/15 02:22:17;;;;;;;31.42;10.40;;;-3.60;99.90;;;;;;4359993;28;660103;-69
2021/01/15 02:25:37;;;;;;;30.27;10.90;;;-3.70;99.90;;;;;;4393593;28;659420;-69
2021/01/15 02:29:15;;;;;;;20.00;7.27;;;-3.80;99.90;;;;;;4370390;28;660831;-68
2021/01/15 02:32:27;;;;;;;16.57;5.60;;;-3.80;99.90;;;;;;4248667;29;658540;-69
2021/01/15 02:35:31;;;;;;;19.70;6.83;;;-3.70;99.90;;;;;;4259221;29;658948;-69
2021/01/15 02:38:25;;;;;;;26.60;10.30;;;-3.70;99.90;;;;;;4244397;29;659172;-66
2021/01/15 02:41:23;;;;;;;31.70;10.57;;;-3.60;99.90;;;;;;4253645;29;660091;-69
2021/01/15 02:44:12;;;;;;;14.57;5.87;;;-3.70;99.90;;;;;;4224505;29;660671;-69
2021/01/15 02:47:00;;;;;;;28.43;10.27;;;-3.70;99.90;;;;;;4259043;29;658477;-68
2021/01/15 02:49:48;;;;;;;17.75;6.30;;;-3.60;99.90;;;;;;4273667;29;661190;-69
2021/01/15 02:52:35;;;;;;;29.53;9.93;;;-3.50;99.90;;;;;;4252680;29;658703;-69
2021/01/15 02:55:22;;;;;;;26.80;9.57;;;-3.50;99.90;;;;;;4276873;29;659706;-70
2021/01/15 02:58:09;;;;;;;29.98;11.80;;;-3.50;99.90;;;;;;4252569;29;658797;-67
2021/01/15 03:00:56;;;;;;;36.27;12.77;;;-3.70;99.90;;;;;;4275497;29;660200;-69
2021/01/15 03:03:49;;;;;;;34.30;11.07;;;-3.60;99.90;;;;;;4273939;29;659767;-67
2021/01/15 03:06:39;;;;;;;37.43;13.93;;;-3.60;99.90;;;;;;4253428;29;660198;-68
2021/01/15 03:09:27;;;;;;;34.60;13.43;;;-3.70;99.90;;;;;;4249255;29;661081;-70
2021/01/15 03:12:14;;;;;;;36.73;13.10;;;-3.80;99.90;;;;;;4363745;28;659703;-69
2021/01/15 03:15:02;;;;;;;35.30;12.80;;;-3.80;99.90;;;;;;4414551;28;660176;-70
2021/01/15 03:17:49;;;;;;;38.07;11.50;;;-3.80;99.90;;;;;;4394221;28;660423;-68
2021/01/15 03:20:36;;;;;;;35.43;12.80;;;-3.80;99.90;;;;;;4404287;28;660717;-69
2021/01/15 03:23:24;;;;;;;36.37;12.97;;;-3.80;99.90;;;;;;4404532;28;659583;-67
2021/01/15 03:26:11;;;;;;;32.13;11.77;;;-3.80;99.90;;;;;;4414362;28;660302;-69
2021/01/15 03:28:59;;;;;;;33.07;12.13;;;-3.70;99.90;;;;;;4393028;28;661790;-67
2021/01/15 03:31:46;;;;;;;25.45;8.95;;;-3.60;99.90;;;;;;4415969;28;659774;-69
2021/01/15 03:34:33;;;;;;;25.73;9.90;;;-3.50;99.90;;;;;;4413822;28;659319;-69
2021/01/15 03:37:20;;;;;;;34.03;12.33;;;-3.40;99.90;;;;;;4393302;28;658570;-69
2021/01/15 03:40:09;;;;;;;27.58;10.27;;;-3.30;99.90;;;;;;4405780;28;661076;-70
2021/01/15 03:42:56;;;;;;;26.67;10.50;;;-3.40;99.90;;;;;;4388196;28;660611;-69
2021/01/15 03:45:43;;;;;;;40.80;13.37;;;-3.50;99.90;;;;;;4406350;28;660417;-70
2021/01/15 03:48:30;;;;;;;22.67;8.60;;;-3.60;99.90;;;;;;4388887;28;660983;-69
2021/01/15 03:51:17;;;;;;;35.77;13.70;;;-3.60;99.90;;;;;;4401900;28;658777;-69
2021/01/15 03:54:05;;;;;;;30.90;12.47;;;-3.70;99.90;;;;;;4389583;28;659501;-69
2021/01/15 03:56:54;;;;;;;37.55;13.52;;;-3.50;99.90;;;;;;4406473;28;660954;-69
2021/01/15 03:59:41;;;;;;;25.10;9.67;;;-3.50;99.90;;;;;;4388096;28;660860;-69
2021/01/15 04:02:29;;;;;;;40.03;13.63;;;-3.40;99.90;;;;;;4400589;28;658729;-67
2021/01/15 04:05:16;;;;;;;37.30;13.30;;;-3.50;99.90;;;;;;4395480;28;659213;-69
2021/01/15 04:08:03;;;;;;;30.00;12.05;;;-3.50;99.90;;;;;;4403561;28;659373;-69
2021/01/15 04:10:50;;;;;;;28.70;10.57;;;-3.40;99.90;;;;;;4374475;28;660255;-69
2021/01/15 04:13:38;;;;;;;38.03;13.87;;;-3.50;99.90;;;;;;4402856;28;660914;-70
2021/01/15 04:16:25;;;;;;;39.17;13.13;;;-3.60;99.90;;;;;;4387014;28;659658;-69
2021/01/15 04:19:11;;;;;;;32.00;12.00;;;-3.70;99.90;;;;;;4406054;28;661339;-69
2021/01/15 04:21:59;;;;;;;34.10;11.67;;;-3.60;99.90;;;;;;4391070;28;659940;-68
2021/01/15 04:24:46;;;;;;;35.13;13.15;;;-3.70;99.90;;;;;;4411673;28;660564;-70
2021/01/15 04:27:33;;;;;;;37.53;12.80;;;-3.60;99.90;;;;;;4406305;28;660577;-69
2021/01/15 04:30:21;;;;;;;36.17;14.00;;;-3.60;99.90;;;;;;4383510;28;659741;-69
2021/01/15 04:33:09;;;;;;;41.53;13.37;;;-3.50;99.90;;;;;;4405242;28;660197;-68
2021/01/15 04:35:56;;;;;;;30.40;11.27;;;-3.60;99.90;;;;;;4407760;28;659574;-70
2021/01/15 04:38:43;;;;;;;17.58;7.10;;;-3.50;99.90;;;;;;4398675;28;659650;-70
2021/01/15 04:41:30;;;;;;;34.20;11.70;;;-3.50;99.90;;;;;;4384029;28;658651;-70
2021/01/15 04:44:17;;;;;;;28.77;11.17;;;-3.60;99.90;;;;;;4405812;28;660381;-70
2021/01/15 04:47:05;;;;;;;20.47;7.73;;;-3.60;99.90;;;;;;4386582;28;659538;-69
2021/01/15 04:49:52;;;;;;;39.70;13.60;;;-3.60;99.90;;;;;;4401342;28;659388;-69
2021/01/15 04:52:45;;;;;;;35.97;12.57;;;-3.60;99.90;;;;;;4373741;28;659629;-69
2021/01/15 04:55:32;;;;;;;39.20;12.47;;;-3.40;99.90;;;;;;4383213;28;659947;-69
2021/01/15 04:58:19;;;;;;;31.03;11.00;;;-3.50;99.90;;;;;;4392592;28;659824;-69
2021/01/15 05:01:06;;;;;;;31.10;11.70;;;-3.50;99.90;;;;;;4408303;28;661340;-69
2021/01/15 05:03:54;;;;;;;39.33;14.90;;;-3.40;99.90;;;;;;4409685;28;659605;-67
2021/01/15 05:06:46;;;;;;;35.63;13.87;;;-3.60;99.90;;;;;;4408215;28;660868;-70
2021/01/15 05:09:41;;;;;;;15.93;5.87;;;-3.70;99.90;;;;;;4384435;28;660426;-70
2021/01/15 05:12:30;;;;;;;37.57;13.23;;;-3.70;99.90;;;;;;4389319;28;659510;-70
2021/01/15 05:15:17;;;;;;;35.75;12.55;;;-3.50;99.90;;;;;;4388855;28;660935;-70
2021/01/15 05:18:05;;;;;;;39.92;13.65;;;-3.70;99.90;;;;;;4385414;28;659475;-68
2021/01/15 05:20:53;;;;;;;35.50;12.30;;;-3.80;99.90;;;;;;4411710;28;660339;-70
2021/01/15 05:23:40;;;;;;;23.37;10.33;;;-3.80;99.90;;;;;;4389447;28;659725;-70
2021/01/15 05:26:27;;;;;;;23.13;8.33;;;-3.60;99.90;;;;;;4413306;28;660334;-70
2021/01/15 05:29:15;;;;;;;35.53;12.40;;;-3.60;99.90;;;;;;4395846;28;658414;-70
2021/01/15 05:32:02;;;;;;;24.87;10.60;;;-3.50;99.90;;;;;;4413600;28;661605;-69
2021/01/15 05:34:50;;;;;;;32.83;11.73;;;-3.60;99.90;;;;;;4393677;28;659510;-69
2021/01/15 05:37:38;;;;;;;34.73;12.03;;;-3.60;99.90;;;;;;4401920;28;659870;-69
2021/01/15 05:40:38;;;;;;;27.40;10.97;;;-3.60;99.90;;;;;;4385749;28;659689;-69
2021/01/15 05:43:25;;;;;;;30.97;12.20;;;-3.60;99.90;;;;;;4363268;28;661005;-69
2021/01/15 05:46:14;;;;;;;30.90;12.10;;;-3.60;99.90;;;;;;4413361;28;660057;-70
2021/01/15 05:49:10;;;;;;;37.30;13.37;;;-3.60;99.90;;;;;;4387034;28;660376;-70
2021/01/15 05:52:07;;;;;;;19.57;6.43;;;-3.70;99.90;;;;;;4383614;28;659506;-69
2021/01/15 05:54:55;;;;;;;30.63;12.10;;;-3.70;99.90;;;;;;4372339;28;659531;-69
2021/01/15 05:57:42;;;;;;;18.40;6.57;;;-3.60;99.90;;;;;;4408337;28;660299;-70
2021/01/15 06:00:37;;;;;;;31.30;13.20;;;-3.70;99.90;;;;;;4383125;28;658392;-69
2021/01/15 06:03:24;;;;;;;12.10;3.57;;;-3.70;99.90;;;;;;4342922;28;660036;-69
2021/01/15 06:06:11;;;;;;;26.17;9.77;;;-3.50;99.90;;;;;;4397034;28;659172;-70
2021/01/15 06:09:00;;;;;;;26.53;9.80;;;-3.30;99.90;;;;;;4380560;28;658847;-67
2021/01/15 06:11:48;;;;;;;29.20;11.65;;;-3.40;99.90;;;;;;4396663;28;660074;-69
2021/01/15 06:14:48;;;;;;;27.53;10.43;;;-3.30;99.90;;;;;;4361817;28;660813;-69
2021/01/15 06:17:38;;;;;;;28.23;10.53;;;-3.50;99.90;;;;;;4376425;28;659543;-69
2021/01/15 06:20:25;;;;;;;18.47;6.43;;;-3.70;99.90;;;;;;4367365;28;661377;-70
2021/01/15 06:23:13;;;;;;;21.93;8.20;;;-3.90;99.90;;;;;;4396745;28;658790;-70
2021/01/15 06:26:01;;;;;;;27.13;8.53;;;-4.10;99.90;;;;;;4362800;28;660233;-70
2021/01/15 06:28:48;;;;;;;62.77;15.13;;;-4.20;99.90;;;;;;4391284;28;659101;-69
2021/01/15 06:31:47;;;;;;;78.87;16.97;;;-4.30;99.90;;;;;;4368073;28;661156;-70
2021/01/15 06:34:34;;;;;;;35.30;10.60;;;-4.40;99.90;;;;;;4344582;28;660439;-67
2021/01/15 06:37:21;;;;;;;45.13;14.10;;;-4.40;99.90;;;;;;4381305;28;659676;-69
2021/01/15 06:40:10;;;;;;;34.97;13.95;;;-4.50;99.90;;;;;;4362022;28;659721;-68
2021/01/15 06:42:57;;;;;;;31.38;11.65;;;-4.50;99.90;;;;;;4377779;28;661183;-69
2021/01/15 06:45:46;;;;;;;52.87;20.60;;;-4.60;99.90;;;;;;4429738;28;659683;-64
2021/01/15 06:48:33;;;;;;;114.50;29.07;;;-4.50;99.90;;;;;;4393014;28;660126;-68
2021/01/15 06:51:20;;;;;;;54.77;20.80;;;-4.70;99.90;;;;;;4373857;28;661376;-67
2021/01/15 06:54:07;;;;;;;32.80;13.00;;;-4.60;99.90;;;;;;4393608;28;660388;-68
2021/01/15 06:57:13;;;;;;;46.45;14.88;;;-4.70;99.90;;;;;;4360186;28;659885;-67
2021/01/15 07:00:00;;;;;;;28.67;11.80;;;-4.80;99.90;;;;;;4379913;28;661008;-68
2021/01/15 07:03:29;;;;;;;19.17;6.53;;;-4.90;99.90;;;;;;4404800;28;660255;-68
2021/01/15 07:06:21;;;;;;;19.77;7.50;;;-4.90;99.90;;;;;;4352703;28;658454;-68
2021/01/15 07:09:09;;;;;;;20.63;8.43;;;-5.10;99.90;;;;;;4349996;28;658226;-64
2021/01/15 07:11:56;;;;;;;24.90;8.93;;;-5.20;99.90;;;;;;4377082;28;659549;-68
2021/01/15 07:14:48;;;;;;;23.20;9.20;;;-5.30;99.90;;;;;;4361121;28;658644;-64
2021/01/15 07:17:36;;;;;;;22.73;8.90;;;-5.30;99.90;;;;;;4354898;28;660082;-68
2021/01/15 07:20:24;;;;;;;50.20;13.90;;;-5.20;99.90;;;;;;4367930;28;658192;-67
2021/01/15 07:23:14;;;;;;;23.90;7.45;;;-5.10;99.90;;;;;;4340643;28;660634;-67
2021/01/15 07:26:01;;;;;;;21.43;8.67;;;-5.20;99.90;;;;;;4353522;28;660848;-68
2021/01/15 07:28:48;;;;;;;107.17;20.70;;;-5.20;99.90;;;;;;4371687;28;659017;-68
2021/01/15 07:31:37;;;;;;;172.27;36.83;;;-5.10;99.90;;;;;;4350404;28;661121;-67
2021/01/15 07:34:25;;;;;;;62.50;17.37;;;-4.90;99.90;;;;;;4356278;28;660835;-66
2021/01/15 07:37:20;;;;;;;53.90;12.57;;;-5.00;99.90;;;;;;4370849;28;660782;-68
2021/01/15 07:40:15;;;;;;;44.88;12.95;;;-4.90;99.90;;;;;;4352997;28;660423;-68
2021/01/15 07:43:03;;;;;;;96.20;20.60;;;-5.00;99.90;;;;;;4352871;28;660334;-68
2021/01/15 07:45:51;;;;;;;68.03;19.07;;;-5.00;99.90;;;;;;4358582;28;661144;-68
2021/01/15 07:48:39;;;;;;;69.07;17.73;;;-5.00;99.90;;;;;;4399722;28;659796;-65
2021/01/15 07:51:26;;;;;;;80.90;23.37;;;-4.90;99.90;;;;;;4404302;28;661069;-67
2021/01/15 07:54:14;;;;;;;39.03;12.67;;;-4.90;99.90;;;;;;4414431;28;659595;-67
2021/01/15 07:57:11;;;;;;;45.80;12.70;;;-4.80;99.90;;;;;;4374027;28;660571;-67
2021/01/15 07:59:59;;;;;;;33.17;10.87;;;-4.70;99.90;;;;;;4383988;28;660334;-67
2021/01/15 08:02:46;;;;;;;20.90;7.30;;;-4.70;99.90;;;;;;4377688;28;661665;-68
2021/01/15 08:05:33;;;;;;;24.60;9.17;;;-4.70;99.90;;;;;;4398728;28;658446;-68
2021/01/15 08:08:20;;;;;;;23.17;8.33;;;-4.80;99.90;;;;;;4380475;28;659695;-67
2021/01/15 08:11:11;;;;;;;17.33;6.23;;;-4.90;99.90;;;;;;4391409;28;660215;-68
2021/01/15 08:14:14;;;;;;;8.77;2.83;;;-4.60;99.90;;;;;;4367325;28;658877;-68
2021/01/15 08:17:01;;;;;;;29.07;10.93;;;-4.70;99.90;;;;;;4381923;28;657894;-68
2021/01/15 08:19:49;;;;;;;26.80;9.27;;;-4.70;99.90;;;;;;4397418;28;659655;-65
2021/01/15 08:22:36;;;;;;;17.07;7.13;;;-4.80;99.90;;;;;;4397632;28;658428;-67
2021/01/15 08:25:27;;;;;;;22.67;8.60;;;-4.80;99.90;;;;;;4393436;28;659276;-68
2021/01/15 08:28:15;;;;;;;17.37;6.20;;;-4.80;99.90;;;;;;4352298;28;659992;-67
2021/01/15 08:31:03;;;;;;;19.20;7.80;;;-4.90;99.90;;;;;;4382462;28;660551;-68
2021/01/15 08:34:05;;;;;;;18.03;6.83;;;-4.80;99.90;;;;;;4345499;28;659559;-66
2021/01/15 08:36:56;;;;;;;21.53;8.33;;;-4.70;99.90;;;;;;4356738;28;659677;-68
2021/01/15 08:39:44;;;;;;;15.55;6.30;;;-4.60;99.90;;;;;;4370967;28;658722;-68
2021/01/15 08:42:31;;;;;;;15.60;6.67;;;-3.90;99.90;;;;;;4378997;28;659217;-67
2021/01/15 08:45:22;;;;;;;20.83;6.38;;;-2.90;99.90;;;;;;4382754;28;658553;-65
2021/01/15 08:48:10;;;;;;;20.43;8.17;;;-1.90;85.50;;;;;;4371729;28;658546;-67
2021/01/15 08:50:57;;;;;;;19.50;6.70;;;-1.00;77.40;;;;;;4397299;28;662036;-68
2021/01/15 08:53:44;;;;;;;25.57;9.43;;;-0.10;71.10;;;;;;4362510;28;658339;-62
2021/01/15 08:56:37;;;;;;;18.77;7.53;;;0.60;67.10;;;;;;4384300;28;659324;-67
2021/01/15 08:59:26;;;;;;;14.53;7.20;;;0.80;64.90;;;;;;4357850;28;659236;-67
2021/01/15 09:02:14;;;;;;;21.52;8.13;;;0.40;60.20;;;;;;4407526;28;658265;-68
2021/01/15 09:05:03;;;;;;;19.20;7.83;;;0.20;63.40;;;;;;4375543;28;658876;-68
2021/01/15 09:07:51;;;;;;;31.33;11.53;;;0.10;63.30;;;;;;4387308;28;657628;-68
2021/01/15 09:10:38;;;;;;;28.13;11.47;;;0.30;62.00;;;;;;4407432;28;659290;-68
2021/01/15 09:13:25;;;;;;;29.67;10.07;;;1.10;63.40;;;;;;4380871;28;658694;-68
2021/01/15 09:16:17;;;;;;;21.92;7.80;;;2.00;58.20;;;;;;4413208;28;659906;-68
2021/01/15 09:19:08;;;;;;;13.03;6.70;;;3.00;54.30;;;;;;4374391;28;657879;-64
2021/01/15 09:21:56;;;;;;;81.57;21.73;;;3.50;52.10;;;;;;4391439;28;659873;-68
2021/01/15 09:24:44;;;;;;;27.63;11.27;;;4.20;52.50;;;;;;4413238;28;658539;-65
2021/01/15 09:27:31;;;;;;;16.55;7.85;;;5.20;49.10;;;;;;4413278;28;659819;-68
2021/01/15 09:30:18;;;;;;;30.23;10.70;;;5.80;47.80;;;;;;4401398;28;657546;-68
2021/01/15 09:33:05;;;;;;;81.20;31.53;;;6.40;43.40;;;;;;4379768;28;659619;-68
2021/01/15 09:35:53;;;;;;;38.87;16.60;;;5.60;42.80;;;;;;4398163;28;658816;-68
2021/01/15 09:38:40;;;;;;;29.07;11.63;;;5.80;41.70;;;;;;4373514;28;660513;-67
2021/01/15 09:41:27;;;;;;;25.40;10.43;;;6.00;43.20;;;;;;4399322;28;659511;-68
2021/01/15 09:44:15;;;;;;;16.67;7.03;;;5.40;43.80;;;;;;4372142;28;658540;-68
2021/01/15 09:47:03;;;;;;;23.63;9.30;;;6.40;42.10;;;;;;4400004;28;657688;-68
2021/01/15 09:49:50;;;;;;;13.30;6.67;;;5.80;39.40;;;;;;4375686;28;658454;-68
2021/01/15 09:52:39;;;;;;;13.77;6.13;;;5.60;39.30;;;;;;4403799;28;659384;-69
2021/01/15 09:55:26;;;;;;;12.27;6.13;;;6.00;38.60;;;;;;4393615;28;659144;-69
2021/01/15 09:58:13;;;;;;;17.40;7.67;;;5.10;38.40;;;;;;4394174;28;658264;-69
2021/01/15 10:01:00;;;;;;;12.37;5.77;;;5.00;38.60;;;;;;4400089;28;657625;-69
2021/01/15 10:03:47;;;;;;;12.77;5.45;;;4.90;39.60;;;;;;4415673;28;658853;-70
2021/01/15 10:06:37;;;;;;;11.77;4.75;;;5.80;39.80;;;;;;4397104;28;657667;-67
2021/01/15 10:09:25;;;;;;;10.20;4.73;;;6.90;38.70;;;;;;4389800;28;658468;-69
2021/01/15 10:12:12;;;;;;;9.53;4.00;;;7.50;36.40;;;;;;4415106;28;658492;-70
2021/01/15 10:14:59;;;;;;;11.83;4.90;;;8.60;33.70;;;;;;4391924;28;657783;-70
2021/01/15 10:17:46;;;;;;;12.13;5.37;;;8.40;34.00;;;;;;4415654;28;658382;-70
2021/01/15 10:20:34;;;;;;;22.03;8.93;;;7.30;34.80;;;;;;4402556;28;657520;-66
2021/01/15 10:23:21;;;;;;;8.73;3.90;;;7.70;33.00;;;;;;4419277;28;657328;-70
2021/01/15 10:26:08;;;;;;;22.70;8.50;;;6.50;33.20;;;;;;4410811;28;657009;-69
2021/01/15 10:28:59;;;;;;;10.27;4.40;;;6.50;34.90;;;;;;4393109;28;659574;-69
2021/01/15 10:31:48;;;;;;;14.77;4.73;;;6.00;33.10;;;;;;4391543;28;659196;-69
2021/01/15 10:34:35;;;;;;;19.70;6.43;;;6.40;36.40;;;;;;4392520;28;659778;-69
2021/01/15 10:37:22;;;;;;;5.30;2.40;;;5.50;34.20;;;;;;4415868;28;657936;-70
2021/01/15 10:40:11;;;;;;;6.80;3.20;;;5.30;35.10;;;;;;4397525;28;657137;-68
2021/01/15 10:42:58;;;;;;;10.53;4.60;;;5.70;36.20;;;;;;4410389;28;656866;-70
2021/01/15 10:45:45;;;;;;;5.27;2.50;;;5.90;35.50;;;;;;4380554;28;658504;-69
2021/01/15 10:48:32;;;;;;;26.40;6.40;;;5.60;32.50;;;;;;4396214;28;656731;-70
2021/01/15 10:51:19;;;;;;;7.83;3.53;;;5.10;34.20;;;;;;4394243;28;657660;-69
2021/01/15 10:54:07;;;;;;;7.73;3.30;;;4.80;34.50;;;;;;4411297;28;657871;-69
2021/01/15 10:56:54;;;;;;;8.37;2.90;;;4.80;36.10;;;;;;4394624;28;657285;-67
2021/01/15 10:59:42;;;;;;;19.47;5.60;;;4.20;36.80;;;;;;4408382;28;658072;-69
2021/01/15 11:02:30;;;;;;;18.37;6.13;;;4.10;35.70;;;;;;4395239;28;657363;-69
2021/01/15 11:05:16;;;;;;;16.30;4.70;;;3.20;35.70;;;;;;4407594;28;659320;-69
2021/01/15 11:08:04;;;;;;;5.20;2.33;;;3.30;36.90;;;;;;4397240;28;657824;-65
2021/01/15 11:10:51;;;;;;;49.33;11.10;;;2.90;36.20;;;;;;4415420;28;658442;-69
2021/01/15 11:13:39;;;;;;;23.90;6.30;;;2.70;35.60;;;;;;4397919;28;659899;-65
2021/01/15 11:16:26;;;;;;;46.43;10.33;;;1.90;36.00;;;;;;4408397;28;659156;-69
2021/01/15 11:19:14;;;;;;;12.23;3.22;;;1.70;40.20;;;;;;4399099;28;658759;-66
2021/01/15 11:22:01;;;;;;;13.77;4.33;;;1.70;39.40;;;;;;4407819;28;659744;-69
2021/01/15 11:24:48;;;;;;;6.47;2.77;;;1.10;40.40;;;;;;4409140;28;658196;-69
2021/01/15 11:27:35;;;;;;;6.27;2.67;;;1.00;41.30;;;;;;4384130;28;656657;-68
2021/01/15 11:30:23;;;;;;;5.13;2.10;;;0.90;41.10;;;;;;4408809;28;658456;-68
2021/01/15 11:33:11;;;;;;;3.20;1.40;;;1.10;38.00;;;;;;4392333;28;657084;-68
2021/01/15 11:35:58;;;;;;;3.77;1.63;;;1.50;36.90;;;;;;4384054;28;657359;-69
2021/01/15 11:38:45;;;;;;;5.50;1.60;;;1.30;36.80;;;;;;4388762;28;656548;-68
2021/01/15 11:41:32;;;;;;;5.43;1.57;;;1.10;38.10;;;;;;4401894;28;657179;-69
2021/01/15 11:44:19;;;;;;;4.17;2.07;;;1.20;38.20;;;;;;4387702;28;658157;-65
2021/01/15 11:47:06;;;;;;;4.27;1.50;;;1.00;39.30;;;;;;4416799;28;656154;-69
2021/01/15 11:49:53;;;;;;;5.43;1.93;;;1.10;40.90;;;;;;4411137;28;657277;-68
2021/01/15 11:52:40;;;;;;;4.23;2.00;;;1.40;39.40;;;;;;4387124;28;658420;-68
2021/01/15 11:55:27;;;;;;;26.20;9.10;;;1.50;38.90;;;;;;4409937;28;657367;-69
2021/01/15 11:58:14;;;;;;;19.92;6.95;;;1.40;39.10;;;;;;4384881;28;658198;-68
2021/01/15 12:01:02;;;;;;;8.77;3.97;;;1.60;37.50;;;;;;4396857;28;659171;-68
2021/01/15 12:03:49;;;;;;;7.23;2.90;;;1.10;38.80;;;;;;4373000;28;656517;-64
2021/01/15 12:06:37;;;;;;;3.53;1.47;;;1.10;39.50;;;;;;4398571;28;658563;-68
2021/01/15 12:09:24;;;;;;;4.20;1.80;;;0.70;39.40;;;;;;4379037;28;657501;-67
2021/01/15 12:12:11;;;;;;;3.03;1.50;;;0.70;40.40;;;;;;4393724;28;657948;-68
2021/01/15 12:14:58;;;;;;;3.70;1.70;;;1.00;40.10;;;;;;4390612;28;657367;-69
2021/01/15 12:17:45;;;;;;;4.27;1.97;;;0.70;41.10;;;;;;4379832;28;656431;-68
2021/01/15 12:20:36;;;;;;;4.80;1.63;;;0.50;41.80;;;;;;4394557;28;658459;-68
2021/01/15 12:23:25;;;;;;;3.73;1.60;;;0.30;42.50;;;;;;4366677;28;657373;-64
2021/01/15 12:26:12;;;;;;;4.00;1.80;;;-0.10;41.70;;;;;;4393128;28;657975;-68
2021/01/15 12:28:59;;;;;;;3.87;1.77;;;-0.40;42.20;;;;;;4377846;28;657923;-65
2021/01/15 12:31:46;;;;;;;2.97;1.37;;;-0.50;43.00;;;;;;4392302;28;657197;-68
2021/01/15 12:34:32;;;;;;;3.37;1.33;;;-0.60;44.80;;;;;;4393573;28;658076;-67
2021/01/15 12:37:23;;;;;;;4.23;1.70;;;-0.80;43.20;;;;;;4373349;28;658185;-68
2021/01/15 12:40:12;;;;;;;3.27;1.67;;;-0.60;44.10;;;;;;4376357;28;658890;-68
2021/01/15 12:42:59;;;;;;;6.83;2.67;;;-0.70;45.50;;;;;;4373013;28;657697;-68
2021/01/15 12:45:48;;;;;;;10.50;3.40;;;-0.70;46.20;;;;;;4395916;28;659103;-67
2021/01/15 12:48:35;;;;;;;3.43;1.47;;;-0.60;48.00;;;;;;4371320;28;658635;-68
2021/01/15 12:51:21;;;;;;;3.53;1.60;;;-0.80;46.80;;;;;;4386798;28;659219;-68
2021/01/15 12:54:09;;;;;;;6.00;1.90;;;-1.20;47.70;;;;;;4364185;28;657632;-64
2021/01/15 12:56:57;;;;;;;5.40;2.60;;;-1.10;49.60;;;;;;4393946;28;659684;-68
2021/01/15 12:59:44;;;;;;;8.33;3.40;;;-1.20;50.80;;;;;;4379928;28;658313;-66
2021/01/15 13:02:31;;;;;;;9.10;3.50;;;-1.20;52.10;;;;;;4404604;28;659380;-68
2021/01/15 13:05:18;;;;;;;13.27;4.30;;;-1.00;52.50;;;;;;4410298;28;657385;-64
2021/01/15 13:08:06;;;;;;;13.77;4.73;;;-1.20;53.30;;;;;;4389721;28;658796;-64
2021/01/15 13:10:53;;;;;;;14.33;4.30;;;-1.30;54.40;;;;;;4411567;28;659027;-67
2021/01/15 13:13:41;;;;;;;12.10;4.27;;;-1.20;53.70;;;;;;4380025;28;658852;-67
2021/01/15 13:16:28;;;;;;;12.27;3.93;;;-1.60;53.60;;;;;;4407105;28;658805;-67
2021/01/15 13:19:15;;;;;;;8.80;3.70;;;-1.90;53.30;;;;;;4458471;23;659360;-88
2021/01/15 13:22:02;;;;;;;9.00;4.03;;;-2.10;53.90;;;;;;4330737;28;658822;-88
2021/01/15 13:24:49;;;;;;;14.50;4.40;;;-2.30;54.40;;;;;;4356407;23;657949;-59
2021/01/15 13:27:41;;;;;;;12.87;4.20;;;-2.60;54.40;;;;;;4379174;28;660579;-59
2021/01/15 13:30:29;;;;;;;13.57;5.20;;;-2.60;56.70;;;;;;4360715;28;659766;-58
2021/01/15 13:33:16;;;;;;;16.40;5.53;;;-2.60;56.50;;;;;;4357498;28;660173;-58
2021/01/15 13:36:04;;;;;;;17.70;6.23;;;-2.60;58.60;;;;;;4388756;28;658211;-58
2021/01/15 13:38:51;;;;;;;21.20;6.30;;;-2.80;57.70;;;;;;4365556;28;660505;-59
2021/01/15 13:41:39;;;;;;;15.33;5.67;;;-2.80;57.90;;;;;;4378270;28;658662;-59
2021/01/15 13:44:26;;;;;;;19.83;6.07;;;-2.90;58.80;;;;;;4387614;28;658973;-58
2021/01/15 13:47:15;;;;;;;19.90;7.50;;;-3.00;58.50;;;;;;4388675;28;658573;-59
2021/01/15 13:50:01;;;;;;;21.60;6.73;;;-3.20;59.00;;;;;;4384781;28;660287;-58
2021/01/15 13:52:50;;;;;;;23.80;6.60;;;-3.10;59.30;;;;;;4370279;28;658523;-59
2021/01/15 13:55:37;;;;;;;17.90;6.47;;;-3.10;58.30;;;;;;4377349;28;659117;-58
2021/01/15 13:58:25;;;;;;;18.93;7.47;;;-3.20;58.50;;;;;;4369641;28;659838;-58
2021/01/15 14:01:11;;;;;;;28.27;7.43;;;-3.30;59.60;;;;;;4379070;28;659727;-58
2021/01/15 14:04:07;;;;;;;21.00;7.63;;;-3.40;59.90;;;;;;4370641;28;660189;-59
2021/01/15 14:06:54;;;;;;;16.17;6.63;;;-3.60;60.30;;;;;;4363762;28;659378;-58
2021/01/15 14:09:41;;;;;;;22.57;7.60;;;-3.50;61.00;;;;;;4386149;28;659744;-58
2021/01/15 14:12:33;;;;;;;28.03;8.93;;;-3.60;61.20;;;;;;4373303;28;658785;-58
2021/01/15 14:15:20;;;;;;;31.00;10.13;;;-3.60;62.10;;;;;;4366413;28;660446;-57